sensor_id;sensor_type;location;lat;lon;timestamp;pressure;altitude;pressure_sealevel;temperature;humidity
37856;BME280;23694;43.274;26.924;2023-02-14T00:01:48;100326.66;;;0.33;94.73
37856;BME280;23694;43.274;26.924;2023-02-14T00:04:16;100328.34;;;0.42;93.47
37856;BME280;23694;43.274;26.924;2023-02-14T00:06:42;100332.66;;;0.40;94.22
37856;BME280;23694;43.274;26.924;2023-02-14T00:09:14;100330.09;;;0.37;94.50
37856;BME280;23694;43.274;26.924;2023-02-14T00:11:41;100325.72;;;0.51;93.71
37856;BME280;23694;43.274;26.924;2023-02-14T00:14:07;100330.00;;;0.50;93.00
37856;BME280;23694;43.274;26.924;2023-02-14T00:16:52;100340.34;;;0.46;93.41
37856;BME280;23694;43.274;26.924;2023-02-14T00:19:19;100327.47;;;0.41;93.98
37856;BME280;23694;43.274;26.924;2023-02-14T00:21:46;100322.41;;;0.26;93.42
37856;BME280;23694;43.274;26.924;2023-02-14T00:26:40;100334.50;;;0.13;94.51
37856;BME280;23694;43.274;26.924;2023-02-14T00:29:08;100328.50;;;0.08;95.94
37856;BME280;23694;43.274;26.924;2023-02-14T00:31:35;100321.66;;;0.01;95.77
37856;BME280;23694;43.274;26.924;2023-02-14T00:34:04;100319.06;;;-0.05;96.09
37856;BME280;23694;43.274;26.924;2023-02-14T00:36:31;100319.09;;;-0.10;96.11
37856;BME280;23694;43.274;26.924;2023-02-14T00:38:57;100313.06;;;-0.06;96.12
37856;BME280;23694;43.274;26.924;2023-02-14T00:41:23;100310.50;;;-0.12;96.54
37856;BME280;23694;43.274;26.924;2023-02-14T00:43:51;100318.25;;;-0.15;96.78
37856;BME280;23694;43.274;26.924;2023-02-14T00:46:19;100313.94;;;-0.08;96.58
37856;BME280;23694;43.274;26.924;2023-02-14T00:48:45;100299.34;;;-0.11;97.33
37856;BME280;23694;43.274;26.924;2023-02-14T00:51:12;100298.47;;;-0.08;97.51
37856;BME280;23694;43.274;26.924;2023-02-14T00:53:39;100301.91;;;-0.06;96.11
37856;BME280;23694;43.274;26.924;2023-02-14T00:56:06;100293.41;;;-0.31;96.84
37856;BME280;23694;43.274;26.924;2023-02-14T00:58:32;100293.41;;;-0.26;97.34
37856;BME280;23694;43.274;26.924;2023-02-14T01:00:59;100290.84;;;-0.33;97.57
37856;BME280;23694;43.274;26.924;2023-02-14T01:03:25;100279.69;;;-0.36;97.84
37856;BME280;23694;43.274;26.924;2023-02-14T01:05:52;100277.09;;;-0.28;97.71
37856;BME280;23694;43.274;26.924;2023-02-14T01:08:18;100257.41;;;-0.39;97.68
37856;BME280;23694;43.274;26.924;2023-02-14T01:10:44;100256.53;;;-0.38;97.62
37856;BME280;23694;43.274;26.924;2023-02-14T01:13:11;100257.41;;;-0.39;97.26
37856;BME280;23694;43.274;26.924;2023-02-14T01:15:43;100260.03;;;-0.65;97.89
37856;BME280;23694;43.274;26.924;2023-02-14T01:18:10;100246.31;;;-0.60;99.12
37856;BME280;23694;43.274;26.924;2023-02-14T01:20:36;100244.59;;;-0.58;99.37
37856;BME280;23694;43.274;26.924;2023-02-14T01:23:02;100243.75;;;-0.60;98.96
37856;BME280;23694;43.274;26.924;2023-02-14T01:25:28;100244.59;;;-0.63;99.15
37856;BME280;23694;43.274;26.924;2023-02-14T01:27:55;100238.59;;;-0.65;99.30
37856;BME280;23694;43.274;26.924;2023-02-14T01:30:21;100231.75;;;-0.77;99.86
37856;BME280;23694;43.274;26.924;2023-02-14T01:32:48;100238.59;;;-0.76;100.00
37856;BME280;23694;43.274;26.924;2023-02-14T01:35:14;100235.16;;;-0.69;100.00
37856;BME280;23694;43.274;26.924;2023-02-14T01:37:40;100237.75;;;-0.64;100.00
37856;BME280;23694;43.274;26.924;2023-02-14T01:40:07;100230.03;;;-0.64;100.00
37856;BME280;23694;43.274;26.924;2023-02-14T01:42:35;100235.16;;;-0.56;100.00
37856;BME280;23694;43.274;26.924;2023-02-14T01:45:22;100226.59;;;-0.63;100.00
37856;BME280;23694;43.274;26.924;2023-02-14T01:47:53;100224.00;;;-0.58;99.63
37856;BME280;23694;43.274;26.924;2023-02-14T01:50:37;100221.41;;;-0.55;99.34
37856;BME280;23694;43.274;26.924;2023-02-14T01:53:09;100216.28;;;-0.61;98.65
37856;BME280;23694;43.274;26.924;2023-02-14T01:55:43;100204.28;;;-0.58;99.22
37856;BME280;23694;43.274;26.924;2023-02-14T01:58:14;100205.06;;;-0.44;98.96
37856;BME280;23694;43.274;26.924;2023-02-14T02:00:43;100200.78;;;-0.42;98.18
37856;BME280;23694;43.274;26.924;2023-02-14T02:03:29;100193.84;;;-0.29;96.83
37856;BME280;23694;43.274;26.924;2023-02-14T02:09:04;100182.78;;;-0.45;96.22
37856;BME280;23694;43.274;26.924;2023-02-14T02:11:27;100173.38;;;-0.52;96.62
37856;BME280;23694;43.274;26.924;2023-02-14T02:13:54;100169.97;;;-0.58;97.05
37856;BME280;23694;43.274;26.924;2023-02-14T02:22:09;100175.97;;;-0.72;97.89
37856;BME280;23694;43.274;26.924;2023-02-14T02:24:59;100165.66;;;-0.66;97.08
37856;BME280;23694;43.274;26.924;2023-02-14T02:27:54;100156.25;;;-0.74;97.53
37856;BME280;23694;43.274;26.924;2023-02-14T02:45:52;100160.63;;;-0.96;100.00
37856;BME280;23694;43.274;26.924;2023-02-14T02:48:46;100160.63;;;-0.99;100.00
37856;BME280;23694;43.274;26.924;2023-02-14T02:51:20;100156.34;;;-0.96;100.00
37856;BME280;23694;43.274;26.924;2023-02-14T02:54:38;100142.66;;;-1.34;100.00
37856;BME280;23694;43.274;26.924;2023-02-14T02:57:13;100148.69;;;-1.26;100.00
37856;BME280;23694;43.274;26.924;2023-02-14T02:59:41;100148.69;;;-1.23;100.00
37856;BME280;23694;43.274;26.924;2023-02-14T03:02:22;100145.25;;;-1.36;100.00
37856;BME280;23694;43.274;26.924;2023-02-14T03:04:53;100142.69;;;-1.28;100.00
37856;BME280;23694;43.274;26.924;2023-02-14T03:21:02;100088.75;;;-1.60;100.00
37856;BME280;23694;43.274;26.924;2023-02-14T03:23:38;100097.31;;;-1.61;100.00
37856;BME280;23694;43.274;26.924;2023-02-14T03:31:54;100063.91;;;-1.70;100.00
37856;BME280;23694;43.274;26.924;2023-02-14T03:34:31;100075.06;;;-1.86;100.00
37856;BME280;23694;43.274;26.924;2023-02-14T03:37:07;100069.94;;;-1.86;100.00
37856;BME280;23694;43.274;26.924;2023-02-14T03:42:45;100052.81;;;-1.90;100.00
37856;BME280;23694;43.274;26.924;2023-02-14T03:45:19;100049.41;;;-1.94;100.00
37856;BME280;23694;43.274;26.924;2023-02-14T03:47:47;100043.41;;;-1.92;100.00
37856;BME280;23694;43.274;26.924;2023-02-14T03:50:19;100043.38;;;-1.81;100.00
37856;BME280;23694;43.274;26.924;2023-02-14T03:52:48;100038.25;;;-1.87;100.00
37856;BME280;23694;43.274;26.924;2023-02-14T03:55:20;100040.81;;;-1.79;100.00
37856;BME280;23694;43.274;26.924;2023-02-14T03:57:54;100028.84;;;-1.93;100.00
37856;BME280;23694;43.274;26.924;2023-02-14T04:00:24;100023.72;;;-1.93;100.00
37856;BME280;23694;43.274;26.924;2023-02-14T04:03:00;100038.25;;;-2.05;100.00
37856;BME280;23694;43.274;26.924;2023-02-14T04:05:28;100022.84;;;-2.10;100.00
37856;BME280;23694;43.274;26.924;2023-02-14T04:07:56;100030.53;;;-2.10;100.00
37856;BME280;23694;43.274;26.924;2023-02-14T04:10:23;100023.69;;;-2.18;100.00
37856;BME280;23694;43.274;26.924;2023-02-14T04:12:50;100037.38;;;-2.18;100.00
37856;BME280;23694;43.274;26.924;2023-02-14T04:15:16;100039.09;;;-2.26;100.00
37856;BME280;23694;43.274;26.924;2023-02-14T04:17:43;100034.81;;;-2.29;100.00
37856;BME280;23694;43.274;26.924;2023-02-14T04:20:28;100040.81;;;-2.16;100.00
37856;BME280;23694;43.274;26.924;2023-02-14T04:22:55;100040.81;;;-2.25;100.00
37856;BME280;23694;43.274;26.924;2023-02-14T04:25:22;100045.94;;;-2.16;100.00
37856;BME280;23694;43.274;26.924;2023-02-14T04:27:48;100048.50;;;-2.14;100.00
37856;BME280;23694;43.274;26.924;2023-02-14T04:30:15;100044.22;;;-2.14;100.00
37856;BME280;23694;43.274;26.924;2023-02-14T04:32:43;100040.81;;;-2.22;100.00
37856;BME280;23694;43.274;26.924;2023-02-14T04:35:09;100037.38;;;-2.24;100.00
37856;BME280;23694;43.274;26.924;2023-02-14T04:37:36;100041.66;;;-2.06;100.00
37856;BME280;23694;43.274;26.924;2023-02-14T04:40:02;100045.94;;;-2.22;100.00
37856;BME280;23694;43.274;26.924;2023-02-14T04:42:28;100054.50;;;-2.06;100.00
37856;BME280;23694;43.274;26.924;2023-02-14T04:44:54;100055.38;;;-1.89;100.00
37856;BME280;23694;43.274;26.924;2023-02-14T04:47:26;100060.50;;;-1.62;100.00
37856;BME280;23694;43.274;26.924;2023-02-14T04:49:52;100044.16;;;-1.39;100.00
37856;BME280;23694;43.274;26.924;2023-02-14T04:52:18;100048.38;;;-1.11;100.00
37856;BME280;23694;43.274;26.924;2023-02-14T04:54:44;100048.28;;;-0.89;100.00
37856;BME280;23694;43.274;26.924;2023-02-14T04:57:10;100038.75;;;-0.61;100.00
37856;BME280;23694;43.274;26.924;2023-02-14T04:59:36;100033.44;;;-0.36;98.46
37856;BME280;23694;43.274;26.924;2023-02-14T05:02:02;100044.41;;;-0.14;95.32
37856;BME280;23694;43.274;26.924;2023-02-14T05:04:31;100044.38;;;-0.09;93.50
37856;BME280;23694;43.274;26.924;2023-02-14T05:06:57;100049.47;;;0.03;92.17
37856;BME280;23694;43.274;26.924;2023-02-14T05:09:23;100051.91;;;0.18;92.48
37856;BME280;23694;43.274;26.924;2023-02-14T05:11:50;100050.13;;;0.26;91.06
37856;BME280;23694;43.274;26.924;2023-02-14T05:14:16;100047.34;;;0.48;90.53
37856;BME280;23694;43.274;26.924;2023-02-14T05:16:42;100048.09;;;0.57;89.45
37856;BME280;23694;43.274;26.924;2023-02-14T05:19:08;100042.72;;;0.79;88.66
37856;BME280;23694;43.274;26.924;2023-02-14T05:21:34;100042.53;;;0.95;87.69
37856;BME280;23694;43.274;26.924;2023-02-14T05:24:00;100039.56;;;1.26;86.09
37856;BME280;23694;43.274;26.924;2023-02-14T05:26:27;100045.38;;;1.45;84.27
37856;BME280;23694;43.274;26.924;2023-02-14T05:28:53;100060.47;;;1.72;82.65
37856;BME280;23694;43.274;26.924;2023-02-14T05:34:41;100061.22;;;2.34;79.06
37856;BME280;23694;43.274;26.924;2023-02-14T05:37:07;100060.81;;;2.55;77.23
37856;BME280;23694;43.274;26.924;2023-02-14T05:39:33;100065.09;;;2.58;76.26
37856;BME280;23694;43.274;26.924;2023-02-14T05:41:59;100065.50;;;2.83;75.87
37856;BME280;23694;43.274;26.924;2023-02-14T05:44:25;100068.19;;;3.22;73.44
37856;BME280;23694;43.274;26.924;2023-02-14T05:46:51;100077.31;;;3.79;71.70
37856;BME280;23694;43.274;26.924;2023-02-14T05:49:19;100068.94;;;4.05;69.13
37856;BME280;23694;43.274;26.924;2023-02-14T05:51:45;100073.81;;;4.53;67.40
37856;BME280;23694;43.274;26.924;2023-02-14T05:54:11;100079.91;;;4.85;64.72
37856;BME280;23694;43.274;26.924;2023-02-14T05:56:37;100078.53;;;4.71;65.58
37856;BME280;23694;43.274;26.924;2023-02-14T05:59:03;100079.75;;;4.58;65.60
37856;BME280;23694;43.274;26.924;2023-02-14T06:01:29;100069.94;;;4.69;64.83
37856;BME280;23694;43.274;26.924;2023-02-14T06:03:55;100062.28;;;4.65;65.47
37856;BME280;23694;43.274;26.924;2023-02-14T06:06:21;100067.47;;;4.65;65.97
37856;BME280;23694;43.274;26.924;2023-02-14T06:08:47;100061.34;;;4.98;63.85
37856;BME280;23694;43.274;26.924;2023-02-14T06:11:14;100068.94;;;4.75;64.36
37856;BME280;23694;43.274;26.924;2023-02-14T06:13:40;100067.69;;;5.21;63.73
37856;BME280;23694;43.274;26.924;2023-02-14T06:16:06;100056.50;;;5.17;63.31
37856;BME280;23694;43.274;26.924;2023-02-14T06:18:32;100062.13;;;5.33;61.93
37856;BME280;23694;43.274;26.924;2023-02-14T06:20:58;100049.19;;;5.59;61.72
37856;BME280;23694;43.274;26.924;2023-02-14T06:23:24;100047.44;;;5.60;60.63
37856;BME280;23694;43.274;26.924;2023-02-14T06:25:50;100050.34;;;5.79;60.13
37856;BME280;23694;43.274;26.924;2023-02-14T06:28:16;100049.00;;;6.21;58.21
37856;BME280;23694;43.274;26.924;2023-02-14T06:30:45;100065.31;;;6.26;58.31
37856;BME280;23694;43.274;26.924;2023-02-14T06:36:33;100062.50;;;7.32;54.48
37856;BME280;23694;43.274;26.924;2023-02-14T06:38:59;100049.72;;;7.93;50.86
37856;BME280;23694;43.274;26.924;2023-02-14T06:41:25;100054.84;;;8.38;49.97
37856;BME280;23694;43.274;26.924;2023-02-14T06:43:51;100044.75;;;9.31;47.98
37856;BME280;23694;43.274;26.924;2023-02-14T06:46:18;100048.44;;;9.83;45.71
37856;BME280;23694;43.274;26.924;2023-02-14T06:48:44;100050.88;;;9.67;46.24
37856;BME280;23694;43.274;26.924;2023-02-14T06:51:11;100047.56;;;10.18;44.83
37856;BME280;23694;43.274;26.924;2023-02-14T06:53:37;100047.13;;;10.79;42.87
37856;BME280;23694;43.274;26.924;2023-02-14T06:56:03;100044.38;;;10.65;43.30
37856;BME280;23694;43.274;26.924;2023-02-14T06:58:30;100044.84;;;10.56;43.47
37856;BME280;23694;43.274;26.924;2023-02-14T07:00:57;100037.03;;;9.84;44.78
37856;BME280;23694;43.274;26.924;2023-02-14T07:03:24;100037.75;;;10.24;43.47
37856;BME280;23694;43.274;26.924;2023-02-14T07:05:51;100049.06;;;8.93;46.52
37856;BME280;23694;43.274;26.924;2023-02-14T07:08:18;100037.78;;;7.87;49.79
37856;BME280;23694;43.274;26.924;2023-02-14T07:10:45;100055.22;;;6.93;53.49
37856;BME280;23694;43.274;26.924;2023-02-14T07:13:11;100060.56;;;6.13;57.05
37856;BME280;23694;43.274;26.924;2023-02-14T07:15:38;100069.47;;;5.48;60.13
37856;BME280;23694;43.274;26.924;2023-02-14T07:18:04;100069.81;;;5.65;60.15
37856;BME280;23694;43.274;26.924;2023-02-14T07:20:33;100070.16;;;5.25;61.94
37856;BME280;23694;43.274;26.924;2023-02-14T07:23:09;100068.75;;;4.81;64.06
37856;BME280;23694;43.274;26.924;2023-02-14T07:25:36;100071.75;;;4.98;63.11
37856;BME280;23694;43.274;26.924;2023-02-14T07:28:02;100075.09;;;5.02;63.75
37856;BME280;23694;43.274;26.924;2023-02-14T07:30:29;100079.09;;;4.83;64.29
37856;BME280;23694;43.274;26.924;2023-02-14T07:32:56;100087.78;;;4.82;64.36
37856;BME280;23694;43.274;26.924;2023-02-14T07:35:22;100084.06;;;4.59;66.32
37856;BME280;23694;43.274;26.924;2023-02-14T07:37:49;100076.66;;;4.76;65.18
37856;BME280;23694;43.274;26.924;2023-02-14T07:40:16;100084.41;;;4.78;64.89
37856;BME280;23694;43.274;26.924;2023-02-14T07:42:42;100082.09;;;5.00;64.85
37856;BME280;23694;43.274;26.924;2023-02-14T07:45:09;100087.75;;;5.14;64.34
37856;BME280;23694;43.274;26.924;2023-02-14T07:47:36;100083.91;;;5.29;63.74
37856;BME280;23694;43.274;26.924;2023-02-14T07:50:02;100084.59;;;5.63;62.66
37856;BME280;23694;43.274;26.924;2023-02-14T07:52:28;100083.09;;;5.27;63.98
37856;BME280;23694;43.274;26.924;2023-02-14T07:54:54;100076.84;;;5.62;62.40
37856;BME280;23694;43.274;26.924;2023-02-14T07:57:20;100071.56;;;5.94;60.47
37856;BME280;23694;43.274;26.924;2023-02-14T07:59:46;100080.63;;;6.09;60.71
37856;BME280;23694;43.274;26.924;2023-02-14T08:02:12;100084.31;;;5.72;61.11
37856;BME280;23694;43.274;26.924;2023-02-14T08:04:38;100074.25;;;5.91;59.95
37856;BME280;23694;43.274;26.924;2023-02-14T08:07:04;100082.97;;;5.90;60.56
37856;BME280;23694;43.274;26.924;2023-02-14T08:09:30;100065.56;;;5.92;59.91
37856;BME280;23694;43.274;26.924;2023-02-14T08:11:57;100063.72;;;5.66;59.96
37856;BME280;23694;43.274;26.924;2023-02-14T08:14:42;100068.44;;;5.82;60.58
37856;BME280;23694;43.274;26.924;2023-02-14T08:17:09;100070.22;;;5.80;60.54
37856;BME280;23694;43.274;26.924;2023-02-14T08:19:38;100075.19;;;5.89;60.61
37856;BME280;23694;43.274;26.924;2023-02-14T08:22:05;100069.03;;;6.19;60.27
37856;BME280;23694;43.274;26.924;2023-02-14T08:24:31;100070.47;;;6.01;60.03
37856;BME280;23694;43.274;26.924;2023-02-14T08:26:57;100064.97;;;6.11;59.13
37856;BME280;23694;43.274;26.924;2023-02-14T08:29:23;100070.31;;;6.32;58.87
37856;BME280;23694;43.274;26.924;2023-02-14T08:31:49;100077.56;;;6.49;57.68
37856;BME280;23694;43.274;26.924;2023-02-14T08:34:16;100066.50;;;6.69;56.51
37856;BME280;23694;43.274;26.924;2023-02-14T08:36:42;100072.50;;;6.45;57.60
37856;BME280;23694;43.274;26.924;2023-02-14T08:39:08;100069.91;;;6.45;57.50
37856;BME280;23694;43.274;26.924;2023-02-14T08:41:35;100065.44;;;6.48;57.04
37856;BME280;23694;43.274;26.924;2023-02-14T08:44:01;100068.53;;;6.61;56.74
37856;BME280;23694;43.274;26.924;2023-02-14T08:46:28;100053.84;;;6.83;56.42
37856;BME280;23694;43.274;26.924;2023-02-14T08:48:54;100056.75;;;6.99;55.27
37856;BME280;23694;43.274;26.924;2023-02-14T08:51:22;100048.06;;;7.23;54.85
37856;BME280;23694;43.274;26.924;2023-02-14T08:53:49;100059.50;;;7.19;54.68
37856;BME280;23694;43.274;26.924;2023-02-14T08:56:16;100054.50;;;7.13;55.22
37856;BME280;23694;43.274;26.924;2023-02-14T08:58:43;100053.78;;;7.33;54.63
37856;BME280;23694;43.274;26.924;2023-02-14T09:01:11;100043.97;;;7.40;54.51
37856;BME280;23694;43.274;26.924;2023-02-14T09:03:38;100038.72;;;7.63;53.03
37856;BME280;23694;43.274;26.924;2023-02-14T09:06:13;100047.84;;;7.97;52.56
37856;BME280;23694;43.274;26.924;2023-02-14T09:08:43;100043.09;;;8.06;51.79
37856;BME280;23694;43.274;26.924;2023-02-14T09:11:17;100041.22;;;8.10;50.60
37856;BME280;23694;43.274;26.924;2023-02-14T09:13:45;100040.06;;;8.17;50.11
37856;BME280;23694;43.274;26.924;2023-02-14T09:16:12;100043.03;;;8.08;50.74
37856;BME280;23694;43.274;26.924;2023-02-14T09:18:39;100036.00;;;7.66;51.95
37856;BME280;23694;43.274;26.924;2023-02-14T09:21:09;100039.78;;;8.03;51.57
37856;BME280;23694;43.274;26.924;2023-02-14T09:23:36;100032.59;;;8.08;51.44
37856;BME280;23694;43.274;26.924;2023-02-14T09:26:05;100034.13;;;8.13;50.80
37856;BME280;23694;43.274;26.924;2023-02-14T09:28:31;100038.75;;;8.07;51.50
37856;BME280;23694;43.274;26.924;2023-02-14T09:30:58;100027.59;;;8.23;50.46
37856;BME280;23694;43.274;26.924;2023-02-14T09:33:27;100030.09;;;8.26;50.75
37856;BME280;23694;43.274;26.924;2023-02-14T09:36:11;100014.78;;;8.39;50.41
37856;BME280;23694;43.274;26.924;2023-02-14T09:38:38;100029.09;;;7.65;50.97
37856;BME280;23694;43.274;26.924;2023-02-14T09:41:08;100020.59;;;8.04;50.95
37856;BME280;23694;43.274;26.924;2023-02-14T09:43:38;100009.34;;;8.23;50.32
37856;BME280;23694;43.274;26.924;2023-02-14T09:46:14;100007.25;;;8.11;50.61
37856;BME280;23694;43.274;26.924;2023-02-14T09:48:43;100019.16;;;7.97;51.11
37856;BME280;23694;43.274;26.924;2023-02-14T09:51:20;100017.88;;;8.07;50.84
37856;BME280;23694;43.274;26.924;2023-02-14T09:53:51;100024.28;;;8.20;50.34
37856;BME280;23694;43.274;26.924;2023-02-14T09:59:25;100030.09;;;8.26;49.76
37856;BME280;23694;43.274;26.924;2023-02-14T10:02:08;100018.66;;;8.29;49.44
37856;BME280;23694;43.274;26.924;2023-02-14T10:05:02;100020.63;;;8.66;48.11
37856;BME280;23694;43.274;26.924;2023-02-14T10:10:42;100005.72;;;9.07;46.58
37856;BME280;23694;43.274;26.924;2023-02-14T10:13:17;100007.53;;;8.86;46.24
37856;BME280;23694;43.274;26.924;2023-02-14T10:15:48;100009.22;;;8.87;44.88
37856;BME280;23694;43.274;26.924;2023-02-14T10:18:31;100004.84;;;8.88;44.60
37856;BME280;23694;43.274;26.924;2023-02-14T10:21:03;100006.19;;;8.97;43.63
37856;BME280;23694;43.274;26.924;2023-02-14T10:23:35;99993.56;;;9.06;44.14
37856;BME280;23694;43.274;26.924;2023-02-14T10:26:10;99997.63;;;9.13;44.07
37856;BME280;23694;43.274;26.924;2023-02-14T10:28:41;100002.31;;;9.05;44.77
37856;BME280;23694;43.274;26.924;2023-02-14T10:45:17;99991.00;;;9.61;41.66
37856;BME280;23694;43.274;26.924;2023-02-14T10:47:56;99986.94;;;9.37;41.95
37856;BME280;23694;43.274;26.924;2023-02-14T10:50:27;99988.72;;;9.36;41.23
37856;BME280;23694;43.274;26.924;2023-02-14T10:55:56;99966.00;;;8.99;42.62
37856;BME280;23694;43.274;26.924;2023-02-14T10:58:26;99973.09;;;9.35;42.13
37856;BME280;23694;43.274;26.924;2023-02-14T11:01:07;99961.47;;;9.59;40.25
37856;BME280;23694;43.274;26.924;2023-02-14T11:03:37;99966.47;;;9.28;41.69
37856;BME280;23694;43.274;26.924;2023-02-14T11:06:04;99960.38;;;9.46;41.37
37856;BME280;23694;43.274;26.924;2023-02-14T11:08:37;99964.69;;;9.47;41.17
37856;BME280;23694;43.274;26.924;2023-02-14T11:11:19;99956.25;;;9.59;40.55
37856;BME280;23694;43.274;26.924;2023-02-14T11:13:46;99959.41;;;9.66;40.97
37856;BME280;23694;43.274;26.924;2023-02-14T11:16:38;99951.66;;;9.45;41.79
37856;BME280;23694;43.274;26.924;2023-02-14T11:21:53;99928.13;;;9.81;40.92
37856;BME280;23694;43.274;26.924;2023-02-14T11:26:59;99925.59;;;9.80;40.04
37856;BME280;23694;43.274;26.924;2023-02-14T11:29:41;99930.63;;;9.30;40.91
37856;BME280;23694;43.274;26.924;2023-02-14T11:32:11;99925.16;;;9.17;40.93
37856;BME280;23694;43.274;26.924;2023-02-14T11:34:51;99913.41;;;9.07;41.23
37856;BME280;23694;43.274;26.924;2023-02-14T11:39:51;99926.44;;;8.50;42.52
37856;BME280;23694;43.274;26.924;2023-02-14T11:45:04;99906.19;;;8.35;43.57
37856;BME280;23694;43.274;26.924;2023-02-14T11:47:33;99911.91;;;8.64;43.71
37856;BME280;23694;43.274;26.924;2023-02-14T11:50:02;99918.75;;;8.66;42.91
37856;BME280;23694;43.274;26.924;2023-02-14T11:52:32;99928.31;;;8.86;42.44
37856;BME280;23694;43.274;26.924;2023-02-14T11:54:59;99914.69;;;8.79;42.29
37856;BME280;23694;43.274;26.924;2023-02-14T11:57:48;99911.78;;;8.67;42.80
37856;BME280;23694;43.274;26.924;2023-02-14T12:00:17;99906.97;;;8.57;42.91
37856;BME280;23694;43.274;26.924;2023-02-14T12:02:46;99927.16;;;8.34;43.08
37856;BME280;23694;43.274;26.924;2023-02-14T12:05:34;99916.03;;;8.08;43.68
37856;BME280;23694;43.274;26.924;2023-02-14T12:08:05;99907.81;;;8.38;43.20
37856;BME280;23694;43.274;26.924;2023-02-14T12:10:34;99912.34;;;8.73;42.69
37856;BME280;23694;43.274;26.924;2023-02-14T12:15:34;99900.25;;;9.27;41.20
37856;BME280;23694;43.274;26.924;2023-02-14T12:26:44;99885.91;;;9.36;41.58
37856;BME280;23694;43.274;26.924;2023-02-14T12:29:22;99888.53;;;9.53;41.79
37856;BME280;23694;43.274;26.924;2023-02-14T12:31:55;99876.38;;;9.52;41.04
37856;BME280;23694;43.274;26.924;2023-02-14T12:34:23;99882.22;;;9.40;40.65
37856;BME280;23694;43.274;26.924;2023-02-14T12:53:57;99885.75;;;8.24;48.00
37856;BME280;23694;43.274;26.924;2023-02-14T13:09:55;99864.97;;;8.03;50.05
37856;BME280;23694;43.274;26.924;2023-02-14T13:12:53;99854.72;;;7.98;49.85
37856;BME280;23694;43.274;26.924;2023-02-14T13:15:37;99851.31;;;8.16;49.35
37856;BME280;23694;43.274;26.924;2023-02-14T13:18:32;99855.41;;;8.42;48.96
37856;BME280;23694;43.274;26.924;2023-02-14T13:21:02;99846.84;;;8.59;48.05
37856;BME280;23694;43.274;26.924;2023-02-14T13:27:00;99851.72;;;8.67;46.34
37856;BME280;23694;43.274;26.924;2023-02-14T13:29:43;99847.63;;;8.61;46.74
37856;BME280;23694;43.274;26.924;2023-02-14T13:32:15;99837.09;;;8.63;46.54
37856;BME280;23694;43.274;26.924;2023-02-14T13:34:45;99847.91;;;8.55;46.69
37856;BME280;23694;43.274;26.924;2023-02-14T13:37:15;99847.06;;;8.34;47.07
37856;BME280;23694;43.274;26.924;2023-02-14T13:39:46;99847.19;;;8.51;46.62
37856;BME280;23694;43.274;26.924;2023-02-14T13:50:52;99850.00;;;8.66;45.88
37856;BME280;23694;43.274;26.924;2023-02-14T13:55:59;99858.16;;;8.39;46.39
37856;BME280;23694;43.274;26.924;2023-02-14T13:58:26;99865.22;;;8.17;47.43
37856;BME280;23694;43.274;26.924;2023-02-14T14:00:52;99860.97;;;8.14;46.86
37856;BME280;23694;43.274;26.924;2023-02-14T14:06:12;99854.97;;;7.72;48.28
37856;BME280;23694;43.274;26.924;2023-02-14T14:08:45;99854.38;;;7.65;48.09
37856;BME280;23694;43.274;26.924;2023-02-14T14:11:47;99851.09;;;7.82;47.34
37856;BME280;23694;43.274;26.924;2023-02-14T14:16:56;99827.94;;;7.94;47.77
37856;BME280;23694;43.274;26.924;2023-02-14T14:22:07;99811.09;;;8.02;47.14
37856;BME280;23694;43.274;26.924;2023-02-14T14:27:22;99835.31;;;7.85;47.34
37856;BME280;23694;43.274;26.924;2023-02-14T14:29:52;99836.59;;;7.75;47.27
37856;BME280;23694;43.274;26.924;2023-02-14T14:32:33;99832.94;;;7.58;48.28
37856;BME280;23694;43.274;26.924;2023-02-14T14:37:33;99824.13;;;7.61;48.40
37856;BME280;23694;43.274;26.924;2023-02-14T14:40:02;99839.13;;;7.56;48.25
37856;BME280;23694;43.274;26.924;2023-02-14T14:42:37;99834.25;;;7.05;50.06
37856;BME280;23694;43.274;26.924;2023-02-14T14:45:27;99834.25;;;7.05;49.66
37856;BME280;23694;43.274;26.924;2023-02-14T14:47:56;99843.22;;;6.97;50.23
37856;BME280;23694;43.274;26.924;2023-02-14T14:50:27;99828.25;;;6.81;50.15
37856;BME280;23694;43.274;26.924;2023-02-14T14:52:56;99819.47;;;6.83;49.65
37856;BME280;23694;43.274;26.924;2023-02-14T14:55:35;99837.22;;;6.74;50.13
37856;BME280;23694;43.274;26.924;2023-02-14T14:58:05;99832.31;;;6.88;50.28
37856;BME280;23694;43.274;26.924;2023-02-14T15:00:35;99815.66;;;6.70;50.63
37856;BME280;23694;43.274;26.924;2023-02-14T15:05:43;99827.66;;;6.74;51.19
37856;BME280;23694;43.274;26.924;2023-02-14T15:13:47;99837.00;;;6.56;52.47
37856;BME280;23694;43.274;26.924;2023-02-14T15:16:20;99839.09;;;6.47;52.45
37856;BME280;23694;43.274;26.924;2023-02-14T15:18:47;99844.03;;;6.54;52.54
37856;BME280;23694;43.274;26.924;2023-02-14T15:21:14;99847.00;;;6.44;52.24
37856;BME280;23694;43.274;26.924;2023-02-14T15:23:42;99848.69;;;6.21;52.32
37856;BME280;23694;43.274;26.924;2023-02-14T15:26:23;99851.13;;;6.26;52.20
37856;BME280;23694;43.274;26.924;2023-02-14T15:29:20;99844.13;;;6.28;51.77
37856;BME280;23694;43.274;26.924;2023-02-14T15:31:47;99851.34;;;6.20;51.75
37856;BME280;23694;43.274;26.924;2023-02-14T15:34:14;99851.31;;;6.21;51.06
37856;BME280;23694;43.274;26.924;2023-02-14T15:36:41;99851.47;;;6.17;51.08
37856;BME280;23694;43.274;26.924;2023-02-14T15:39:15;99847.72;;;6.00;51.83
37856;BME280;23694;43.274;26.924;2023-02-14T15:41:43;99846.06;;;5.98;52.01
37856;BME280;23694;43.274;26.924;2023-02-14T15:44:20;99857.72;;;5.86;52.41
37856;BME280;23694;43.274;26.924;2023-02-14T15:46:47;99859.75;;;5.77;53.52
37856;BME280;23694;43.274;26.924;2023-02-14T15:49:20;99862.81;;;5.63;54.57
37856;BME280;23694;43.274;26.924;2023-02-14T15:51:47;99861.13;;;5.62;54.50